Time;durP1;ratioP1;P1;durP2;ratioP2;P2;SDS_P1;SDS_P2;PMS_P1;PMS_P2;Temp;Humidity;BMP_temperature;BMP_pressure;BME280_temperature;BME280_humidity;BME280_pressure;Samples;Min_cycle;Max_cycle;Signal;HPM_P1;HPM_P2
2023/09/27 00:00:34;;;;;;;5.50;4.25;;;17.70;99.90;;;;;;5111855;27;20037;-35
2023/09/27 00:02:59;;;;;;;5.15;4.47;;;17.80;99.90;;;;;;5160519;27;20070;-37
2023/09/27 00:05:25;;;;;;;5.35;4.75;;;17.80;99.90;;;;;;5107815;27;20026;-35
2023/09/27 00:07:51;;;;;;;4.75;4.25;;;17.80;99.90;;;;;;5163081;27;20018;-39
2023/09/27 00:10:18;;;;;;;4.65;4.25;;;17.90;99.90;;;;;;5106064;27;20053;-36
2023/09/27 00:12:47;;;;;;;4.93;4.30;;;17.90;99.90;;;;;;5167730;27;20074;-36
2023/09/27 00:15:14;;;;;;;5.95;4.50;;;17.90;99.90;;;;;;5100580;27;20017;-36
2023/09/27 00:17:46;;;;;;;5.07;4.50;;;17.90;99.90;;;;;;5139410;27;20017;-34
2023/09/27 00:20:15;;;;;;;6.93;5.70;;;17.90;99.90;;;;;;5127000;27;20418;-37
2023/09/27 00:22:44;;;;;;;5.80;5.20;;;18.00;99.90;;;;;;5061972;28;20052;-36
2023/09/27 00:25:09;;;;;;;5.90;5.28;;;18.00;99.90;;;;;;5124024;27;20441;-35
2023/09/27 00:27:36;;;;;;;6.82;4.95;;;18.10;99.90;;;;;;5064476;27;20053;-36
2023/09/27 00:30:08;;;;;;;5.05;4.55;;;18.10;99.90;;;;;;5111493;27;20022;-36
2023/09/27 00:32:34;;;;;;;5.10;4.60;;;18.20;99.90;;;;;;5073222;27;20048;-35
2023/09/27 00:35:04;;;;;;;6.93;5.28;;;18.20;99.90;;;;;;5101990;27;20018;-35
2023/09/27 00:37:30;;;;;;;7.63;5.05;;;18.20;99.90;;;;;;5084444;27;20024;-36
2023/09/27 00:39:56;;;;;;;5.07;4.60;;;18.20;99.90;;;;;;5092126;27;20365;-36
2023/09/27 00:42:23;;;;;;;5.28;4.78;;;18.30;99.90;;;;;;5096477;27;20325;-35
2023/09/27 00:44:49;;;;;;;7.05;5.28;;;18.20;99.90;;;;;;5080045;27;20013;-35
2023/09/27 00:47:15;;;;;;;5.53;4.88;;;18.20;99.90;;;;;;5108627;27;20032;-37
2023/09/27 00:49:40;;;;;;;6.32;4.30;;;18.20;99.90;;;;;;5068526;27;20059;-36
2023/09/27 00:52:06;;;;;;;6.22;5.28;;;18.20;99.90;;;;;;5120230;27;20025;-36
2023/09/27 00:54:32;;;;;;;5.80;4.90;;;18.10;99.90;;;;;;5068363;27;20020;-36
2023/09/27 00:57:01;;;;;;;6.03;5.43;;;18.10;99.90;;;;;;5120663;27;20013;-35
2023/09/27 00:59:31;;;;;;;6.28;4.65;;;18.10;99.90;;;;;;5062123;27;20036;-36
2023/09/27 01:01:56;;;;;;;5.90;4.78;;;18.00;99.90;;;;;;5101303;27;20033;-35
2023/09/27 01:04:23;;;;;;;5.82;5.22;;;18.00;99.90;;;;;;5167486;27;20026;-34
2023/09/27 01:06:49;;;;;;;6.45;4.78;;;18.00;99.90;;;;;;5100881;27;20046;-35
2023/09/27 01:09:16;;;;;;;5.63;5.05;;;18.00;99.90;;;;;;5166010;27;20137;-35
2023/09/27 01:11:46;;;;;;;5.90;5.30;;;17.90;99.90;;;;;;5146802;27;20022;-35
2023/09/27 01:14:12;;;;;;;5.97;5.35;;;17.90;99.90;;;;;;5061789;27;20036;-35
2023/09/27 01:16:37;;;;;;;6.13;5.40;;;17.80;99.90;;;;;;5111560;27;20030;-36
2023/09/27 01:19:03;;;;;;;6.00;5.40;;;17.80;99.90;;;;;;5161390;27;20030;-34
2023/09/27 01:21:29;;;;;;;5.95;5.38;;;17.60;99.90;;;;;;5128631;27;20040;-34
2023/09/27 01:23:55;;;;;;;6.82;6.13;;;17.60;99.90;;;;;;5137795;27;20082;-35
2023/09/27 01:26:22;;;;;;;6.32;5.75;;;17.50;99.90;;;;;;5142471;27;20017;-36
2023/09/27 01:28:48;;;;;;;5.68;5.18;;;17.50;99.90;;;;;;5125713;27;20049;-35
2023/09/27 01:31:14;;;;;;;7.10;6.40;;;17.40;99.90;;;;;;5153585;27;20018;-35
2023/09/27 01:33:40;;;;;;;7.43;6.55;;;17.40;99.90;;;;;;5112446;27;20022;-35
2023/09/27 01:36:06;;;;;;;6.43;5.80;;;17.30;99.90;;;;;;5158515;27;20084;-36
2023/09/27 01:38:33;;;;;;;6.35;5.72;;;17.30;99.90;;;;;;5107094;27;20037;-35
2023/09/27 01:40:59;;;;;;;6.40;5.80;;;17.30;99.90;;;;;;5161669;27;20023;-34
2023/09/27 01:43:24;;;;;;;6.43;5.78;;;17.20;99.90;;;;;;5104459;27;20397;-36
2023/09/27 01:45:50;;;;;;;6.18;5.57;;;17.20;99.90;;;;;;5166592;27;20029;-35
2023/09/27 01:48:21;;;;;;;7.13;6.43;;;17.10;99.90;;;;;;5099570;27;20028;-35
2023/09/27 01:50:50;;;;;;;6.75;6.03;;;17.10;99.90;;;;;;5165557;27;20027;-34
2023/09/27 01:53:17;;;;;;;7.10;6.40;;;17.10;99.90;;;;;;5100449;27;20432;-35
2023/09/27 01:55:42;;;;;;;6.40;5.80;;;17.00;99.90;;;;;;5170642;27;20022;-35
2023/09/27 01:58:08;;;;;;;7.00;6.30;;;16.90;99.90;;;;;;5111971;27;20784;-36
2023/09/27 02:00:35;;;;;;;7.57;6.57;;;16.90;99.90;;;;;;5161335;27;20860;-35
2023/09/27 02:03:02;;;;;;;7.05;6.25;;;16.90;99.90;;;;;;5125351;27;20066;-46
2023/09/27 02:05:30;;;;;;;7.53;6.75;;;16.90;99.90;;;;;;5064233;28;20733;-36
2023/09/27 02:07:55;;;;;;;7.32;6.63;;;16.90;99.90;;;;;;5098106;27;20038;-35
2023/09/27 02:10:21;;;;;;;8.20;6.40;;;16.90;99.90;;;;;;5098003;27;20097;-34
2023/09/27 02:12:47;;;;;;;8.18;7.38;;;16.90;99.90;;;;;;5086388;27;20018;-34
2023/09/27 02:15:14;;;;;;;7.10;6.40;;;16.80;99.90;;;;;;5123114;27;20028;-36
2023/09/27 02:17:42;;;;;;;7.95;6.70;;;16.80;99.90;;;;;;5163575;27;20030;-34
2023/09/27 02:20:12;;;;;;;7.30;6.60;;;16.80;99.90;;;;;;5113192;27;20397;-35
2023/09/27 02:22:42;;;;;;;7.70;6.90;;;16.70;99.90;;;;;;5162169;27;20037;-35
2023/09/27 02:25:13;;;;;;;7.38;6.68;;;16.70;99.90;;;;;;5109771;27;20038;-35
2023/09/27 02:27:40;;;;;;;8.52;7.45;;;16.60;99.90;;;;;;5161273;27;20050;-35
2023/09/27 02:30:11;;;;;;;7.28;6.57;;;16.60;99.90;;;;;;5123160;27;20029;-35
2023/09/27 02:32:41;;;;;;;7.72;6.88;;;16.60;99.90;;;;;;5063516;27;20055;-35
2023/09/27 02:35:09;;;;;;;8.27;7.00;;;16.60;99.90;;;;;;5105830;27;20122;-36
2023/09/27 02:37:36;;;;;;;7.07;6.22;;;16.60;99.90;;;;;;5169693;27;20042;-36
2023/09/27 02:40:04;;;;;;;7.20;6.60;;;16.60;99.90;;;;;;5101611;27;20503;-37
2023/09/27 02:42:36;;;;;;;7.97;7.20;;;16.60;99.90;;;;;;5169319;27;20102;-37
2023/09/27 02:45:03;;;;;;;7.32;6.55;;;16.50;99.90;;;;;;5101696;27;20029;-36
2023/09/27 02:47:31;;;;;;;7.30;6.60;;;16.50;99.90;;;;;;5169327;27;20034;-36
2023/09/27 02:49:57;;;;;;;7.65;6.75;;;16.50;99.90;;;;;;5108155;27;20029;-36
2023/09/27 02:52:22;;;;;;;7.63;6.65;;;16.50;99.90;;;;;;5163950;27;20022;-36
2023/09/27 02:54:48;;;;;;;7.78;6.97;;;16.50;99.90;;;;;;5122523;27;20498;-35
2023/09/27 02:57:14;;;;;;;8.43;7.18;;;16.50;99.90;;;;;;5149294;27;20019;-37
2023/09/27 02:59:40;;;;;;;7.63;6.90;;;16.40;99.90;;;;;;5136601;27;20045;-38
2023/09/27 03:02:06;;;;;;;7.95;7.15;;;16.40;99.90;;;;;;5135422;27;20377;-36
2023/09/27 03:04:32;;;;;;;7.43;6.68;;;16.40;99.90;;;;;;5149293;27;20028;-37
2023/09/27 03:06:59;;;;;;;7.32;6.63;;;16.40;99.90;;;;;;5122226;27;20764;-37
2023/09/27 03:09:25;;;;;;;7.15;6.45;;;16.40;99.90;;;;;;5160776;27;20145;-37
2023/09/27 03:11:53;;;;;;;7.32;6.63;;;16.30;99.90;;;;;;5109640;27;20016;-37
2023/09/27 03:14:19;;;;;;;7.20;6.30;;;16.30;99.90;;;;;;5160598;27;20431;-36
2023/09/27 03:16:44;;;;;;;6.90;6.30;;;16.30;99.90;;;;;;5108908;27;20018;-43
2023/09/27 03:19:10;;;;;;;8.00;7.20;;;16.30;99.90;;;;;;5086398;27;20035;-36
2023/09/27 03:21:39;;;;;;;7.43;6.72;;;16.20;99.90;;;;;;5127941;27;20485;-36
2023/09/27 03:24:05;;;;;;;7.43;6.72;;;16.20;99.90;;;;;;5062421;27;20082;-36
2023/09/27 03:26:31;;;;;;;7.80;7.00;;;16.20;99.90;;;;;;5129984;27;20091;-37
2023/09/27 03:28:56;;;;;;;8.43;7.20;;;16.20;99.90;;;;;;5062805;27;20073;-36
2023/09/27 03:31:22;;;;;;;7.93;6.78;;;16.20;99.90;;;;;;5123944;27;20023;-37
2023/09/27 03:33:50;;;;;;;7.75;6.97;;;16.20;99.90;;;;;;5066994;27;20484;-36
2023/09/27 03:36:24;;;;;;;7.80;7.00;;;16.20;99.90;;;;;;5111822;27;20022;-36
2023/09/27 03:38:50;;;;;;;7.70;6.95;;;16.10;99.90;;;;;;5072671;27;20017;-35
2023/09/27 03:41:16;;;;;;;6.07;5.47;;;16.10;99.90;;;;;;5085612;27;20817;-36
2023/09/27 03:43:41;;;;;;;7.50;6.57;;;16.10;99.90;;;;;;5143919;27;20133;-36
2023/09/27 03:46:11;;;;;;;7.35;6.65;;;16.10;99.90;;;;;;5139324;27;20061;-36
2023/09/27 03:48:37;;;;;;;7.43;6.50;;;16.10;99.90;;;;;;5134138;27;20490;-35
2023/09/27 03:51:03;;;;;;;7.50;6.80;;;16.10;99.90;;;;;;5149693;27;20570;-36
2023/09/27 03:53:35;;;;;;;7.13;6.43;;;16.10;99.90;;;;;;5119756;27;20026;-37
2023/09/27 03:56:01;;;;;;;;;;;16.10;99.90;;;;;;5159143;27;20022;-36
2023/09/27 03:58:26;;;;;;;6.47;5.80;;;16.10;99.90;;;;;;5110112;27;19913;-36
2023/09/27 04:00:52;;;;;;;6.75;6.15;;;16.10;99.90;;;;;;5160788;27;20098;-35
2023/09/27 04:03:18;;;;;;;8.00;7.20;;;16.00;99.90;;;;;;5108513;27;20049;-36
2023/09/27 04:05:53;;;;;;;7.43;6.72;;;16.00;99.90;;;;;;5164642;27;20022;-36
2023/09/27 04:08:18;;;;;;;8.07;7.10;;;16.00;99.90;;;;;;5121121;27;20093;-35
2023/09/27 04:10:44;;;;;;;7.60;6.85;;;16.00;99.90;;;;;;5061909;28;20475;-34
2023/09/27 04:13:10;;;;;;;7.40;6.63;;;16.00;99.90;;;;;;5127221;27;20022;-35
2023/09/27 04:15:38;;;;;;;6.82;6.18;;;16.00;99.90;;;;;;5062334;28;20059;-41
2023/09/27 04:18:13;;;;;;;7.43;6.57;;;16.00;99.90;;;;;;5099173;27;20076;-38
2023/09/27 04:20:38;;;;;;;7.20;6.50;;;16.00;99.90;;;;;;5062379;27;20085;-36
2023/09/27 04:23:04;;;;;;;6.95;6.25;;;16.00;99.90;;;;;;5121953;27;20018;-36
2023/09/27 04:25:30;;;;;;;7.20;6.50;;;16.00;99.90;;;;;;5067032;27;20040;-36
2023/09/27 04:27:56;;;;;;;7.07;6.40;;;16.00;99.90;;;;;;5108986;27;20110;-38
2023/09/27 04:30:22;;;;;;;7.03;6.40;;;16.00;99.90;;;;;;5080280;27;20435;-37
2023/09/27 04:32:52;;;;;;;7.20;6.50;;;16.00;99.90;;;;;;5095378;27;20042;-36
2023/09/27 04:35:18;;;;;;;7.28;6.57;;;16.00;99.90;;;;;;5090407;27;20037;-35
2023/09/27 04:37:44;;;;;;;7.00;6.30;;;16.00;99.90;;;;;;5085094;27;20101;-35
2023/09/27 04:40:11;;;;;;;7.47;6.78;;;16.00;99.90;;;;;;5103500;27;20020;-36
2023/09/27 04:42:38;;;;;;;6.78;6.10;;;15.90;99.90;;;;;;5072687;27;20056;-35
2023/09/27 04:45:04;;;;;;;7.38;6.40;;;16.00;99.90;;;;;;5115776;27;20516;-35
2023/09/27 04:47:30;;;;;;;7.65;6.88;;;16.00;99.90;;;;;;5068354;27;20018;-35
2023/09/27 04:49:56;;;;;;;7.63;6.47;;;15.90;99.90;;;;;;5120774;27;20029;-34
2023/09/27 04:52:22;;;;;;;7.45;6.65;;;15.90;99.90;;;;;;5066183;27;20025;-35
2023/09/27 04:54:48;;;;;;;7.25;6.55;;;15.90;99.90;;;;;;5121895;27;20081;-36
2023/09/27 04:57:14;;;;;;;7.90;7.15;;;15.90;99.90;;;;;;5061604;28;20092;-35
2023/09/27 04:59:40;;;;;;;6.68;6.05;;;15.90;99.90;;;;;;5127489;27;20512;-35
2023/09/27 05:02:06;;;;;;;7.57;6.72;;;15.90;99.90;;;;;;5060335;28;20776;-33
2023/09/27 05:04:32;;;;;;;6.70;6.07;;;15.80;99.90;;;;;;5125993;27;20470;-35
2023/09/27 05:06:57;;;;;;;8.40;7.50;;;15.80;99.90;;;;;;5062997;27;20116;-34
2023/09/27 05:09:32;;;;;;;7.05;6.30;;;15.80;99.90;;;;;;5110498;27;20171;-35
2023/09/27 05:12:01;;;;;;;7.50;6.65;;;15.80;99.90;;;;;;5070336;27;20021;-34
2023/09/27 05:14:26;;;;;;;7.68;6.82;;;15.80;99.90;;;;;;5105877;27;20026;-35
2023/09/27 05:16:52;;;;;;;8.18;6.47;;;15.80;99.90;;;;;;5082207;27;20025;-35
2023/09/27 05:19:17;;;;;;;7.75;6.95;;;15.80;99.90;;;;;;5110692;27;20116;-35
2023/09/27 05:21:43;;;;;;;8.05;7.25;;;15.80;99.90;;;;;;5131521;27;20117;-36
2023/09/27 05:24:09;;;;;;;9.10;7.47;;;15.80;99.90;;;;;;5144271;27;20029;-35
2023/09/27 05:26:34;;;;;;;7.38;6.65;;;15.70;99.90;;;;;;5109933;27;20024;-35
2023/09/27 05:29:02;;;;;;;12.05;7.38;;;15.70;99.90;;;;;;5072907;27;20079;-35
2023/09/27 05:31:28;;;;;;;7.72;6.93;;;15.80;99.90;;;;;;5110065;27;20051;-37
2023/09/27 05:33:54;;;;;;;8.35;7.30;;;15.80;99.90;;;;;;5162981;27;20022;-35
2023/09/27 05:36:19;;;;;;;8.18;7.43;;;15.70;99.90;;;;;;5106248;27;20049;-34
2023/09/27 05:38:46;;;;;;;8.05;7.25;;;15.70;99.90;;;;;;5169103;27;20041;-35
2023/09/27 05:41:11;;;;;;;7.93;6.90;;;15.70;99.90;;;;;;5102219;27;20030;-35
2023/09/27 05:43:37;;;;;;;7.97;7.18;;;15.70;99.90;;;;;;5169726;27;20049;-36
2023/09/27 05:46:03;;;;;;;8.35;7.55;;;15.70;99.90;;;;;;5101929;27;20017;-35
2023/09/27 05:48:30;;;;;;;7.85;7.07;;;15.80;99.90;;;;;;5169953;27;20034;-36
2023/09/27 05:50:56;;;;;;;7.65;6.85;;;15.80;99.90;;;;;;5111557;27;20021;-36
2023/09/27 05:53:21;;;;;;;8.15;7.35;;;15.80;99.90;;;;;;5160942;27;20022;-36
2023/09/27 05:55:48;;;;;;;8.23;7.43;;;15.80;99.90;;;;;;5126085;27;20074;-36
2023/09/27 05:58:14;;;;;;;8.05;7.25;;;15.80;99.90;;;;;;5146193;27;20067;-35
2023/09/27 06:00:46;;;;;;;8.20;7.40;;;15.80;99.90;;;;;;5139594;27;20024;-35
2023/09/27 06:03:12;;;;;;;8.02;7.22;;;15.80;99.90;;;;;;5137907;27;20026;-36
2023/09/27 06:05:37;;;;;;;7.97;7.10;;;15.80;99.90;;;;;;5148673;27;20063;-36
2023/09/27 06:08:03;;;;;;;7.97;7.18;;;15.90;99.90;;;;;;5124025;27;20115;-35
2023/09/27 06:10:29;;;;;;;7.65;6.95;;;15.90;99.90;;;;;;5161727;27;20532;-37
2023/09/27 06:12:55;;;;;;;8.00;7.20;;;15.90;99.90;;;;;;5098524;27;20018;-35
2023/09/27 06:15:20;;;;;;;9.25;7.63;;;15.90;99.90;;;;;;5161569;27;20105;-37
2023/09/27 06:17:47;;;;;;;8.45;7.63;;;15.90;99.90;;;;;;5100096;27;20022;-35
2023/09/27 06:20:19;;;;;;;7.72;6.93;;;16.00;99.90;;;;;;5063856;27;20031;-37
2023/09/27 06:22:49;;;;;;;8.60;7.72;;;16.00;99.90;;;;;;5107597;27;20106;-36
2023/09/27 06:25:18;;;;;;;9.20;7.40;;;16.00;99.90;;;;;;5167779;27;20022;-35
2023/09/27 06:27:44;;;;;;;7.95;7.15;;;16.10;99.90;;;;;;5086362;27;20112;-37
2023/09/27 06:30:11;;;;;;;9.45;8.25;;;16.10;99.90;;;;;;5062597;28;20107;-36
2023/09/27 06:32:37;;;;;;;8.43;7.32;;;16.20;99.90;;;;;;5129099;27;20047;-36
2023/09/27 06:35:12;;;;;;;8.45;7.65;;;16.20;99.90;;;;;;5062135;28;20495;-35
2023/09/27 06:37:40;;;;;;;9.60;7.82;;;16.20;99.90;;;;;;5126454;27;20018;-36
2023/09/27 06:40:09;;;;;;;8.93;7.50;;;16.20;99.90;;;;;;5062399;27;20025;-37
2023/09/27 06:42:35;;;;;;;8.68;7.78;;;16.20;99.90;;;;;;5116464;27;20015;-36
2023/09/27 06:45:01;;;;;;;8.55;7.68;;;16.30;99.90;;;;;;5075703;27;20129;-36
2023/09/27 06:47:34;;;;;;;8.20;7.40;;;16.30;99.90;;;;;;5082988;27;20024;-36
2023/09/27 06:49:59;;;;;;;8.60;6.95;;;16.40;99.90;;;;;;5146999;27;20115;-37
2023/09/27 06:52:25;;;;;;;9.02;7.68;;;16.40;99.90;;;;;;5138263;27;20017;-41
2023/09/27 06:54:52;;;;;;;7.80;7.10;;;16.50;99.90;;;;;;5134229;27;20539;-38
2023/09/27 06:57:18;;;;;;;8.88;7.80;;;16.50;99.90;;;;;;5150682;27;20025;-36
2023/09/27 06:59:44;;;;;;;8.38;7.00;;;16.60;99.90;;;;;;5121814;27;20441;-37
2023/09/27 07:02:09;;;;;;;7.32;6.63;;;16.60;99.90;;;;;;5159872;27;20097;-34
2023/09/27 07:04:36;;;;;;;7.22;6.53;;;16.70;99.90;;;;;;5109713;27;20469;-37
2023/09/27 07:07:02;;;;;;;6.90;6.20;;;16.80;99.90;;;;;;5160936;27;20018;-35
2023/09/27 07:09:28;;;;;;;6.95;6.35;;;16.90;99.90;;;;;;5109848;27;20037;-36
2023/09/27 07:11:53;;;;;;;7.53;6.85;;;16.90;99.90;;;;;;5168752;27;20539;-36
2023/09/27 07:14:20;;;;;;;7.88;6.57;;;17.00;99.90;;;;;;5101001;27;20839;-37
2023/09/27 07:16:46;;;;;;;7.68;6.97;;;17.00;99.90;;;;;;5169130;27;20094;-34
2023/09/27 07:19:12;;;;;;;7.13;6.43;;;17.10;99.90;;;;;;5101804;27;20028;-35
2023/09/27 07:21:40;;;;;;;6.72;6.13;;;17.10;99.90;;;;;;5168486;27;20079;-36
2023/09/27 07:24:09;;;;;;;8.80;6.20;;;17.10;99.90;;;;;;5108878;27;20037;-36
2023/09/27 07:26:35;;;;;;;7.10;6.40;;;17.10;99.90;;;;;;5163601;27;20015;-35
2023/09/27 07:29:01;;;;;;;6.90;6.22;;;17.20;99.90;;;;;;5119190;27;20100;-35
2023/09/27 07:31:29;;;;;;;7.40;6.70;;;17.20;99.90;;;;;;5150045;27;20018;-35
2023/09/27 07:33:56;;;;;;;7.50;6.80;;;17.20;99.90;;;;;;5132654;27;20036;-34
2023/09/27 07:36:24;;;;;;;8.43;6.63;;;17.30;99.90;;;;;;5128820;27;20138;-35
2023/09/27 07:38:51;;;;;;;8.15;7.40;;;17.20;99.90;;;;;;5095497;27;20032;-34
2023/09/27 07:41:20;;;;;;;9.05;8.05;;;17.30;99.90;;;;;;5127200;27;20022;-34
2023/09/27 07:43:48;;;;;;;8.82;8.00;;;17.30;99.90;;;;;;5153422;27;20022;-35
2023/09/27 07:46:14;;;;;;;8.88;6.95;;;17.30;99.90;;;;;;5117789;27;20026;-36
2023/09/27 07:48:41;;;;;;;7.88;7.05;;;17.30;99.90;;;;;;5161095;27;20041;-35
2023/09/27 07:51:18;;;;;;;7.25;6.55;;;17.30;99.90;;;;;;5106588;27;20019;-36
2023/09/27 07:53:43;;;;;;;7.10;6.40;;;17.30;99.90;;;;;;5160109;27;20856;-35
2023/09/27 07:56:21;;;;;;;7.18;6.47;;;17.30;99.90;;;;;;5107371;27;20022;-35
2023/09/27 07:58:52;;;;;;;6.80;6.13;;;17.30;99.90;;;;;;5160871;27;20032;-34
2023/09/27 08:01:22;;;;;;;7.65;6.85;;;17.30;99.90;;;;;;5108394;27;20097;-36
2023/09/27 08:03:48;;;;;;;10.88;8.60;;;17.40;99.90;;;;;;5161601;27;20027;-35
2023/09/27 08:06:16;;;;;;;10.35;8.88;;;17.40;99.90;;;;;;5107057;27;20019;-35
2023/09/27 08:08:43;;;;;;;9.25;8.35;;;17.50;99.90;;;;;;5167782;27;20038;-35
2023/09/27 08:11:11;;;;;;;10.25;8.95;;;17.50;99.90;;;;;;5099835;27;20025;-34
2023/09/27 08:13:37;;;;;;;11.10;8.80;;;17.50;99.90;;;;;;5167962;27;20117;-36
2023/09/27 08:16:06;;;;;;;9.80;8.63;;;17.60;99.90;;;;;;5100870;27;20021;-35
2023/09/27 08:18:33;;;;;;;9.32;8.20;;;17.60;99.90;;;;;;5131802;27;20369;-35
2023/09/27 08:20:59;;;;;;;10.57;8.50;;;17.60;99.90;;;;;;5119269;27;20058;-36
2023/09/27 08:23:27;;;;;;;8.45;7.60;;;17.70;99.90;;;;;;5069634;27;20570;-35
2023/09/27 08:25:53;;;;;;;8.63;7.82;;;17.70;99.90;;;;;;5107330;27;20159;-35
2023/09/27 08:28:22;;;;;;;8.55;7.65;;;17.70;99.90;;;;;;5081011;27;20614;-37
2023/09/27 08:30:48;;;;;;;8.05;7.35;;;17.80;99.90;;;;;;5097329;27;20485;-37
2023/09/27 08:33:14;;;;;;;7.55;6.75;;;17.70;99.90;;;;;;5090831;27;20052;-34
2023/09/27 08:35:40;;;;;;;8.68;7.40;;;17.70;99.90;;;;;;5083617;27;20017;-36
2023/09/27 08:38:06;;;;;;;10.70;6.97;;;17.80;99.90;;;;;;5105895;27;20452;-36
2023/09/27 08:40:31;;;;;;;8.18;7.40;;;17.80;99.90;;;;;;5068982;27;20547;-35
2023/09/27 08:42:59;;;;;;;7.07;6.43;;;17.80;99.90;;;;;;5120664;27;20025;-37
2023/09/27 08:45:26;;;;;;;7.13;6.43;;;17.80;99.90;;;;;;5068780;27;20606;-36
2023/09/27 08:47:56;;;;;;;7.32;6.63;;;17.90;99.90;;;;;;5121346;27;20017;-35
2023/09/27 08:50:24;;;;;;;8.57;7.70;;;17.90;99.90;;;;;;5067082;27;20103;-35
2023/09/27 08:52:51;;;;;;;7.55;6.85;;;18.00;99.90;;;;;;5107356;27;20030;-36
2023/09/27 08:55:18;;;;;;;7.45;6.78;;;18.00;99.90;;;;;;5167223;27;20779;-36
2023/09/27 08:57:54;;;;;;;7.03;6.32;;;18.10;99.90;;;;;;5100763;27;20026;-35
2023/09/27 09:00:22;;;;;;;6.65;6.05;;;18.20;99.90;;;;;;5166469;27;20422;-36
2023/09/27 09:02:56;;;;;;;7.80;7.00;;;18.30;99.90;;;;;;5101970;27;20024;-35
2023/09/27 09:05:24;;;;;;;7.07;6.20;;;18.40;99.90;;;;;;5170701;27;20058;-35
2023/09/27 09:07:50;;;;;;;8.27;7.43;;;18.50;99.90;;;;;;5103621;27;20036;-35
2023/09/27 09:10:19;;;;;;;7.78;6.15;;;18.60;99.90;;;;;;5170607;27;20026;-35
2023/09/27 09:12:49;;;;;;;6.85;6.15;;;18.80;99.90;;;;;;5110572;27;20017;-35
2023/09/27 09:15:35;;;;;;;6.53;5.93;;;18.90;99.90;;;;;;5165746;27;20026;-36
2023/09/27 09:18:06;;;;;;;6.90;5.72;;;19.00;99.90;;;;;;5114286;27;20490;-35
2023/09/27 09:20:51;;;;;;;7.55;6.82;;;19.10;99.90;;;;;;5171049;27;20123;-35
2023/09/27 09:23:33;;;;;;;6.78;5.60;;;19.20;99.90;;;;;;5103349;27;20069;-35
2023/09/27 09:26:00;;;;;;;;;;;19.30;99.90;;;;;;5171542;27;20030;-35
2023/09/27 09:28:25;;;;;;;5.20;4.70;;;19.50;99.90;;;;;;5102942;27;19960;-35
2023/09/27 09:30:51;;;;;;;6.32;5.72;;;19.50;99.90;;;;;;5171075;27;20061;-34
2023/09/27 09:33:24;;;;;;;6.40;5.80;;;19.70;99.90;;;;;;5116338;27;20048;-34
2023/09/27 09:35:51;;;;;;;7.88;5.63;;;19.80;99.90;;;;;;5162334;27;20134;-35
2023/09/27 09:38:29;;;;;;;6.30;5.57;;;19.90;99.90;;;;;;5123899;27;20081;-35
2023/09/27 09:40:56;;;;;;;6.75;6.07;;;20.00;99.90;;;;;;5157442;27;20500;-35
2023/09/27 09:43:36;;;;;;;6.55;5.88;;;20.10;99.90;;;;;;5127842;27;20029;-36
2023/09/27 09:46:06;;;;;;;6.35;5.82;;;20.10;99.90;;;;;;5155970;27;20030;-36
2023/09/27 09:48:33;;;;;;;7.55;6.80;;;20.20;99.90;;;;;;5128466;27;20028;-34
2023/09/27 09:51:06;;;;;;;6.65;5.95;;;20.20;99.90;;;;;;5145847;27;20069;-35
2023/09/27 09:53:52;;;;;;;7.25;5.57;;;20.20;99.90;;;;;;5137546;27;20108;-35
2023/09/27 09:56:19;;;;;;;5.30;4.90;;;20.30;99.90;;;;;;5150678;27;20117;-36
2023/09/27 09:58:59;;;;;;;6.18;5.57;;;20.30;99.90;;;;;;5135440;27;20040;-36
2023/09/27 10:01:28;;;;;;;5.70;5.13;;;20.40;99.90;;;;;;5150284;27;20037;-35
2023/09/27 10:03:55;;;;;;;5.63;5.05;;;20.40;99.90;;;;;;5135406;27;20024;-35
2023/09/27 10:06:22;;;;;;;4.57;4.18;;;20.40;99.90;;;;;;5138662;27;20022;-35
2023/09/27 10:08:49;;;;;;;4.72;4.32;;;20.50;99.90;;;;;;5147724;27;21259;-34
2023/09/27 10:11:16;;;;;;;4.53;4.13;;;20.50;99.90;;;;;;5126649;27;20030;-34
2023/09/27 10:13:43;;;;;;;7.28;4.90;;;20.70;99.90;;;;;;5158777;27;20097;-35
2023/09/27 10:16:09;;;;;;;6.38;4.50;;;20.70;99.90;;;;;;5114489;27;20478;-36
2023/09/27 10:18:40;;;;;;;5.03;4.32;;;20.70;99.90;;;;;;5146997;27;20587;-35
2023/09/27 10:21:13;;;;;;;4.00;3.60;;;20.80;99.90;;;;;;5122773;27;20111;-35
2023/09/27 10:23:44;;;;;;;3.78;3.38;;;20.80;99.90;;;;;;5071308;27;20019;-35
2023/09/27 10:26:26;;;;;;;7.07;3.85;;;20.90;99.90;;;;;;5122133;27;20036;-35
2023/09/27 10:29:15;;;;;;;5.85;3.70;;;20.90;99.90;;;;;;5071416;27;20029;-35
2023/09/27 10:32:05;;;;;;;3.28;2.80;;;21.00;99.90;;;;;;5102699;27;20583;-35
2023/09/27 10:34:40;;;;;;;3.00;2.80;;;21.10;99.90;;;;;;5141173;27;20415;-35
2023/09/27 10:37:05;;;;;;;3.83;3.00;;;21.20;99.90;;;;;;5125133;27;20057;-34
2023/09/27 10:39:31;;;;;;;3.17;2.88;;;21.20;99.90;;;;;;5160615;27;20046;-35
2023/09/27 10:42:00;;;;;;;2.92;2.63;;;21.30;99.90;;;;;;5111593;27;20022;-34
2023/09/27 10:44:33;;;;;;;2.95;2.65;;;21.30;99.90;;;;;;5161735;27;20021;-36
2023/09/27 10:47:01;;;;;;;2.83;2.58;;;21.40;99.90;;;;;;5109367;27;20023;-34
2023/09/27 10:49:38;;;;;;;3.25;2.55;;;21.50;99.90;;;;;;5161806;27;20404;-36
2023/09/27 10:52:13;;;;;;;3.10;2.80;;;21.50;99.90;;;;;;5108748;27;20026;-36
2023/09/27 10:54:38;;;;;;;3.53;2.78;;;21.50;99.90;;;;;;5162087;27;20432;-34
2023/09/27 10:57:04;;;;;;;3.10;2.40;;;21.60;99.90;;;;;;5109464;27;20105;-35
2023/09/27 10:59:29;;;;;;;3.00;2.63;;;21.60;99.90;;;;;;5168019;27;20025;-35
2023/09/27 11:01:56;;;;;;;3.10;2.80;;;21.50;99.90;;;;;;5101736;27;20126;-36
2023/09/27 11:04:25;;;;;;;3.13;2.60;;;21.50;99.90;;;;;;5168772;27;20019;-36
2023/09/27 11:06:52;;;;;;;2.40;2.20;;;21.50;99.90;;;;;;5101563;27;20116;-35
2023/09/27 11:09:22;;;;;;;4.43;2.70;;;21.50;99.90;;;;;;5168512;27;20038;-36
2023/09/27 11:11:48;;;;;;;3.00;2.70;;;21.50;99.90;;;;;;5106867;27;20100;-35
2023/09/27 11:14:34;;;;;;;3.10;2.38;;;21.60;99.90;;;;;;5164911;27;20029;-35
2023/09/27 11:17:22;;;;;;;3.67;2.80;;;21.60;99.90;;;;;;5104229;27;20074;-36
2023/09/27 11:19:48;;;;;;;2.90;2.50;;;21.70;99.90;;;;;;5135242;27;20418;-35
2023/09/27 11:22:27;;;;;;;3.55;2.83;;;21.70;99.90;;;;;;5101498;27;20056;-34
2023/09/27 11:24:56;;;;;;;2.90;2.60;;;21.70;99.90;;;;;;5168623;27;20032;-35
2023/09/27 11:27:22;;;;;;;3.50;2.70;;;21.80;99.90;;;;;;5102763;27;20020;-36
2023/09/27 11:29:54;;;;;;;3.63;2.97;;;21.80;99.90;;;;;;5167295;27;20507;-36
2023/09/27 11:32:20;;;;;;;4.30;3.03;;;21.80;99.90;;;;;;5112887;27;20131;-34
2023/09/27 11:34:56;;;;;;;2.92;2.60;;;21.80;99.90;;;;;;5158033;27;20022;-36
2023/09/27 11:37:23;;;;;;;4.20;2.83;;;21.80;99.90;;;;;;5107317;27;20060;-35
2023/09/27 11:39:54;;;;;;;4.10;3.22;;;21.80;99.90;;;;;;5149843;27;20109;-36
2023/09/27 11:42:21;;;;;;;4.57;3.63;;;21.80;99.90;;;;;;5125874;27;20059;-36
2023/09/27 11:45:08;;;;;;;3.42;3.13;;;21.80;99.90;;;;;;5144291;27;20053;-35
2023/09/27 11:47:47;;;;;;;2.83;2.55;;;21.70;99.90;;;;;;5124966;27;20020;-35
2023/09/27 11:50:16;;;;;;;3.30;3.00;;;21.60;99.90;;;;;;5153090;27;20164;-35
2023/09/27 11:52:43;;;;;;;3.70;2.97;;;21.60;99.90;;;;;;5126501;27;20164;-35
2023/09/27 11:55:09;;;;;;;4.10;2.90;;;21.60;99.90;;;;;;5143661;27;20131;-35
2023/09/27 11:57:36;;;;;;;6.03;3.58;;;21.50;99.90;;;;;;5138945;27;20059;-35
2023/09/27 12:00:05;;;;;;;4.13;3.53;;;21.50;99.90;;;;;;5131405;27;20035;-36
2023/09/27 12:02:35;;;;;;;3.47;3.17;;;21.50;99.90;;;;;;5148809;27;20103;-36
2023/09/27 12:05:01;;;;;;;3.13;2.50;;;21.50;99.90;;;;;;5122527;27;20066;-35
2023/09/27 12:07:27;;;;;;;2.88;2.55;;;21.50;99.90;;;;;;5159761;27;20444;-36
2023/09/27 12:09:54;;;;;;;2.90;2.33;;;21.60;99.90;;;;;;5109192;27;20516;-37
2023/09/27 12:12:20;;;;;;;3.63;2.67;;;21.70;99.90;;;;;;5160031;27;20021;-35
2023/09/27 12:14:46;;;;;;;3.85;2.53;;;21.70;99.90;;;;;;5108469;27;20014;-36
2023/09/27 12:17:12;;;;;;;3.20;2.90;;;21.70;99.90;;;;;;5165228;27;20070;-37
2023/09/27 12:19:38;;;;;;;3.20;2.90;;;21.80;99.90;;;;;;5080808;27;20028;-36
2023/09/27 12:22:03;;;;;;;3.67;2.35;;;21.80;99.90;;;;;;5062053;28;20031;-35
2023/09/27 12:24:30;;;;;;;3.15;2.50;;;21.90;99.90;;;;;;5096176;27;20818;-36
2023/09/27 12:26:56;;;;;;;3.08;2.60;;;21.90;99.90;;;;;;5167476;27;20030;-36
2023/09/27 12:29:22;;;;;;;2.70;2.50;;;21.90;99.90;;;;;;5106077;27;20136;-35
2023/09/27 12:31:47;;;;;;;3.15;2.85;;;22.00;99.90;;;;;;5161476;27;20125;-36
2023/09/27 12:34:13;;;;;;;3.10;2.80;;;22.00;99.90;;;;;;5119804;27;20051;-36
2023/09/27 12:36:38;;;;;;;5.20;2.97;;;22.00;99.90;;;;;;5148122;27;20552;-36
2023/09/27 12:39:07;;;;;;;2.78;2.47;;;21.90;99.90;;;;;;5132746;27;20096;-36
2023/09/27 12:41:32;;;;;;;4.30;3.25;;;21.90;99.90;;;;;;5136626;27;20037;-36
2023/09/27 12:43:58;;;;;;;5.13;3.03;;;21.90;99.90;;;;;;5145473;27;20022;-37
2023/09/27 12:46:24;;;;;;;4.68;2.50;;;21.90;99.90;;;;;;5121231;27;20117;-35
2023/09/27 12:48:49;;;;;;;2.80;2.45;;;22.00;99.90;;;;;;5159743;27;20034;-35
2023/09/27 12:51:15;;;;;;;2.78;2.50;;;22.10;99.90;;;;;;5097083;27;20050;-36